sensor_id;sensor_type;location;lat;lon;timestamp;P1;durP1;ratioP1;P2;durP2;ratioP2
70052;SDS011;57398;52.032;4.376;2022-12-08T00:01:15;4.43;;;1.60;;
70052;SDS011;57398;52.032;4.376;2022-12-08T00:03:44;4.22;;;1.80;;
70052;SDS011;57398;52.032;4.376;2022-12-08T00:06:14;6.87;;;1.67;;
70052;SDS011;57398;52.032;4.376;2022-12-08T00:09:10;3.72;;;1.58;;
70052;SDS011;57398;52.032;4.376;2022-12-08T00:11:49;4.05;;;1.63;;
70052;SDS011;57398;52.032;4.376;2022-12-08T00:14:18;3.90;;;1.50;;
70052;SDS011;57398;52.032;4.376;2022-12-08T00:16:46;5.18;;;2.20;;
70052;SDS011;57398;52.032;4.376;2022-12-08T00:19:14;4.40;;;1.83;;
70052;SDS011;57398;52.032;4.376;2022-12-08T00:21:43;5.53;;;1.90;;
70052;SDS011;57398;52.032;4.376;2022-12-08T00:24:11;4.70;;;1.85;;
70052;SDS011;57398;52.032;4.376;2022-12-08T00:26:38;5.25;;;2.20;;
70052;SDS011;57398;52.032;4.376;2022-12-08T00:29:06;6.15;;;2.40;;
70052;SDS011;57398;52.032;4.376;2022-12-08T00:31:39;5.80;;;2.50;;
70052;SDS011;57398;52.032;4.376;2022-12-08T00:34:07;7.00;;;2.97;;
70052;SDS011;57398;52.032;4.376;2022-12-08T00:36:35;8.38;;;3.72;;
70052;SDS011;57398;52.032;4.376;2022-12-08T00:39:04;9.52;;;4.53;;
70052;SDS011;57398;52.032;4.376;2022-12-08T00:41:32;10.35;;;4.60;;
70052;SDS011;57398;52.032;4.376;2022-12-08T00:44:17;9.83;;;5.23;;
70052;SDS011;57398;52.032;4.376;2022-12-08T00:46:46;10.48;;;5.00;;
70052;SDS011;57398;52.032;4.376;2022-12-08T00:49:14;13.82;;;5.50;;
70052;SDS011;57398;52.032;4.376;2022-12-08T00:51:43;11.57;;;5.82;;
70052;SDS011;57398;52.032;4.376;2022-12-08T00:54:13;11.60;;;5.65;;
70052;SDS011;57398;52.032;4.376;2022-12-08T00:56:41;9.80;;;4.97;;
70052;SDS011;57398;52.032;4.376;2022-12-08T00:59:09;11.13;;;5.63;;
70052;SDS011;57398;52.032;4.376;2022-12-08T01:01:37;12.90;;;6.00;;
70052;SDS011;57398;52.032;4.376;2022-12-08T01:04:04;12.38;;;6.30;;
70052;SDS011;57398;52.032;4.376;2022-12-08T01:06:33;14.75;;;5.57;;
70052;SDS011;57398;52.032;4.376;2022-12-08T01:09:02;13.57;;;6.10;;
70052;SDS011;57398;52.032;4.376;2022-12-08T01:11:32;12.02;;;5.57;;
70052;SDS011;57398;52.032;4.376;2022-12-08T01:14:01;8.02;;;3.63;;
70052;SDS011;57398;52.032;4.376;2022-12-08T01:16:30;9.60;;;3.97;;
70052;SDS011;57398;52.032;4.376;2022-12-08T01:18:59;8.02;;;3.40;;
70052;SDS011;57398;52.032;4.376;2022-12-08T01:21:27;9.17;;;3.77;;
70052;SDS011;57398;52.032;4.376;2022-12-08T01:23:57;11.52;;;4.15;;
70052;SDS011;57398;52.032;4.376;2022-12-08T01:26:25;8.40;;;4.43;;
70052;SDS011;57398;52.032;4.376;2022-12-08T01:28:54;9.88;;;4.25;;
70052;SDS011;57398;52.032;4.376;2022-12-08T01:31:24;11.15;;;5.00;;
70052;SDS011;57398;52.032;4.376;2022-12-08T01:33:52;11.50;;;4.47;;
70052;SDS011;57398;52.032;4.376;2022-12-08T01:36:21;12.57;;;5.47;;
70052;SDS011;57398;52.032;4.376;2022-12-08T01:38:50;14.35;;;5.63;;
70052;SDS011;57398;52.032;4.376;2022-12-08T01:41:19;13.68;;;6.10;;
70052;SDS011;57398;52.032;4.376;2022-12-08T01:43:52;10.63;;;5.28;;
70052;SDS011;57398;52.032;4.376;2022-12-08T01:46:25;13.57;;;4.53;;
70052;SDS011;57398;52.032;4.376;2022-12-08T01:48:56;10.20;;;4.28;;
70052;SDS011;57398;52.032;4.376;2022-12-08T01:51:30;9.32;;;4.15;;
70052;SDS011;57398;52.032;4.376;2022-12-08T01:54:01;10.65;;;5.00;;
70052;SDS011;57398;52.032;4.376;2022-12-08T01:56:33;9.93;;;4.88;;
70052;SDS011;57398;52.032;4.376;2022-12-08T01:59:07;7.50;;;1.50;;
70052;SDS011;57398;52.032;4.376;2022-12-08T02:01:36;7.25;;;1.70;;
70052;SDS011;57398;52.032;4.376;2022-12-08T02:04:04;5.53;;;1.50;;
70052;SDS011;57398;52.032;4.376;2022-12-08T02:06:32;3.95;;;1.33;;
70052;SDS011;57398;52.032;4.376;2022-12-08T02:09:03;6.15;;;1.20;;
70052;SDS011;57398;52.032;4.376;2022-12-08T02:11:32;1.73;;;0.80;;
70052;SDS011;57398;52.032;4.376;2022-12-08T02:13:59;1.80;;;0.90;;
70052;SDS011;57398;52.032;4.376;2022-12-08T02:16:36;1.90;;;0.60;;
70052;SDS011;57398;52.032;4.376;2022-12-08T02:19:14;2.38;;;1.00;;
70052;SDS011;57398;52.032;4.376;2022-12-08T02:22:03;2.55;;;0.88;;
70052;SDS011;57398;52.032;4.376;2022-12-08T02:24:38;3.40;;;0.90;;
70052;SDS011;57398;52.032;4.376;2022-12-08T02:27:19;2.97;;;0.90;;
70052;SDS011;57398;52.032;4.376;2022-12-08T02:30:07;4.38;;;1.10;;
70052;SDS011;57398;52.032;4.376;2022-12-08T02:36:09;2.50;;;0.68;;
70052;SDS011;57398;52.032;4.376;2022-12-08T02:38:44;2.70;;;0.87;;
70052;SDS011;57398;52.032;4.376;2022-12-08T02:41:23;4.30;;;0.82;;
70052;SDS011;57398;52.032;4.376;2022-12-08T02:43:59;2.22;;;0.90;;
70052;SDS011;57398;52.032;4.376;2022-12-08T02:46:32;2.35;;;0.85;;
70052;SDS011;57398;52.032;4.376;2022-12-08T02:49:04;6.10;;;0.77;;
70052;SDS011;57398;52.032;4.376;2022-12-08T02:51:34;3.53;;;0.93;;
70052;SDS011;57398;52.032;4.376;2022-12-08T02:54:02;3.40;;;1.10;;
70052;SDS011;57398;52.032;4.376;2022-12-08T02:59:32;2.38;;;0.80;;
70052;SDS011;57398;52.032;4.376;2022-12-08T03:02:17;2.67;;;0.90;;
70052;SDS011;57398;52.032;4.376;2022-12-08T03:04:57;4.73;;;0.60;;
70052;SDS011;57398;52.032;4.376;2022-12-08T03:07:35;2.67;;;0.80;;
70052;SDS011;57398;52.032;4.376;2022-12-08T03:10:09;1.65;;;0.70;;
70052;SDS011;57398;52.032;4.376;2022-12-08T03:12:42;2.30;;;0.90;;
70052;SDS011;57398;52.032;4.376;2022-12-08T03:15:15;2.25;;;0.88;;
70052;SDS011;57398;52.032;4.376;2022-12-08T03:17:48;4.67;;;1.07;;
70052;SDS011;57398;52.032;4.376;2022-12-08T03:20:20;3.20;;;0.80;;
70052;SDS011;57398;52.032;4.376;2022-12-08T03:22:51;3.92;;;0.77;;
70052;SDS011;57398;52.032;4.376;2022-12-08T03:25:24;3.70;;;0.82;;
70052;SDS011;57398;52.032;4.376;2022-12-08T03:27:52;3.00;;;0.70;;
70052;SDS011;57398;52.032;4.376;2022-12-08T03:30:20;7.23;;;0.97;;
70052;SDS011;57398;52.032;4.376;2022-12-08T03:32:49;3.28;;;0.98;;
70052;SDS011;57398;52.032;4.376;2022-12-08T03:35:20;2.10;;;0.80;;
70052;SDS011;57398;52.032;4.376;2022-12-08T03:37:59;2.28;;;0.50;;
70052;SDS011;57398;52.032;4.376;2022-12-08T03:40:29;3.10;;;0.75;;
70052;SDS011;57398;52.032;4.376;2022-12-08T03:42:56;2.33;;;0.80;;
70052;SDS011;57398;52.032;4.376;2022-12-08T03:45:24;2.92;;;0.80;;
70052;SDS011;57398;52.032;4.376;2022-12-08T03:47:52;3.28;;;0.85;;
70052;SDS011;57398;52.032;4.376;2022-12-08T03:50:20;4.03;;;0.90;;
70052;SDS011;57398;52.032;4.376;2022-12-08T03:52:47;4.28;;;0.82;;
70052;SDS011;57398;52.032;4.376;2022-12-08T03:55:17;3.33;;;0.90;;
70052;SDS011;57398;52.032;4.376;2022-12-08T03:57:46;3.17;;;0.90;;
70052;SDS011;57398;52.032;4.376;2022-12-08T04:00:14;3.47;;;0.90;;
70052;SDS011;57398;52.032;4.376;2022-12-08T04:02:43;2.05;;;0.70;;
70052;SDS011;57398;52.032;4.376;2022-12-08T04:05:10;1.65;;;0.50;;
70052;SDS011;57398;52.032;4.376;2022-12-08T04:07:38;1.87;;;0.50;;
70052;SDS011;57398;52.032;4.376;2022-12-08T04:10:06;1.65;;;0.55;;
70052;SDS011;57398;52.032;4.376;2022-12-08T04:12:36;1.70;;;0.60;;
70052;SDS011;57398;52.032;4.376;2022-12-08T04:15:04;1.83;;;0.80;;
70052;SDS011;57398;52.032;4.376;2022-12-08T04:17:32;4.90;;;0.60;;
70052;SDS011;57398;52.032;4.376;2022-12-08T04:20:00;1.20;;;0.60;;
70052;SDS011;57398;52.032;4.376;2022-12-08T04:22:28;1.92;;;0.70;;
70052;SDS011;57398;52.032;4.376;2022-12-08T04:24:56;2.92;;;0.63;;
70052;SDS011;57398;52.032;4.376;2022-12-08T04:27:23;1.45;;;0.60;;
70052;SDS011;57398;52.032;4.376;2022-12-08T04:29:52;3.15;;;0.63;;
70052;SDS011;57398;52.032;4.376;2022-12-08T04:32:20;1.90;;;0.57;;
70052;SDS011;57398;52.032;4.376;2022-12-08T04:34:48;4.80;;;0.90;;
70052;SDS011;57398;52.032;4.376;2022-12-08T04:37:15;3.00;;;0.80;;
70052;SDS011;57398;52.032;4.376;2022-12-08T04:39:43;4.45;;;0.80;;
70052;SDS011;57398;52.032;4.376;2022-12-08T04:42:11;3.15;;;0.60;;
70052;SDS011;57398;52.032;4.376;2022-12-08T04:44:39;2.97;;;0.90;;
70052;SDS011;57398;52.032;4.376;2022-12-08T04:47:08;2.28;;;0.65;;
70052;SDS011;57398;52.032;4.376;2022-12-08T04:49:36;3.15;;;0.93;;
70052;SDS011;57398;52.032;4.376;2022-12-08T04:52:04;4.00;;;0.80;;
70052;SDS011;57398;52.032;4.376;2022-12-08T04:54:31;3.70;;;1.00;;
70052;SDS011;57398;52.032;4.376;2022-12-08T04:56:59;4.97;;;0.70;;
70052;SDS011;57398;52.032;4.376;2022-12-08T04:59:27;4.53;;;0.90;;
70052;SDS011;57398;52.032;4.376;2022-12-08T05:01:54;3.55;;;0.75;;
70052;SDS011;57398;52.032;4.376;2022-12-08T05:04:24;3.30;;;0.82;;
70052;SDS011;57398;52.032;4.376;2022-12-08T05:06:52;1.13;;;0.50;;
70052;SDS011;57398;52.032;4.376;2022-12-08T05:09:19;2.63;;;0.70;;
70052;SDS011;57398;52.032;4.376;2022-12-08T05:11:47;2.03;;;0.60;;
70052;SDS011;57398;52.032;4.376;2022-12-08T05:14:16;7.50;;;1.05;;
70052;SDS011;57398;52.032;4.376;2022-12-08T05:16:44;2.28;;;0.70;;
70052;SDS011;57398;52.032;4.376;2022-12-08T05:19:13;1.52;;;0.60;;
70052;SDS011;57398;52.032;4.376;2022-12-08T05:21:43;2.63;;;0.67;;
70052;SDS011;57398;52.032;4.376;2022-12-08T05:24:10;2.90;;;0.77;;
70052;SDS011;57398;52.032;4.376;2022-12-08T05:26:38;2.05;;;0.70;;
70052;SDS011;57398;52.032;4.376;2022-12-08T05:29:06;2.78;;;0.70;;
70052;SDS011;57398;52.032;4.376;2022-12-08T05:31:33;3.80;;;0.70;;
70052;SDS011;57398;52.032;4.376;2022-12-08T05:34:01;2.40;;;0.70;;
70052;SDS011;57398;52.032;4.376;2022-12-08T05:36:29;4.13;;;1.05;;
70052;SDS011;57398;52.032;4.376;2022-12-08T05:38:58;1.40;;;0.70;;
70052;SDS011;57398;52.032;4.376;2022-12-08T05:41:25;1.58;;;0.60;;
70052;SDS011;57398;52.032;4.376;2022-12-08T05:43:53;3.03;;;0.50;;
70052;SDS011;57398;52.032;4.376;2022-12-08T05:46:21;2.30;;;0.60;;
70052;SDS011;57398;52.032;4.376;2022-12-08T05:48:49;1.30;;;0.60;;
70052;SDS011;57398;52.032;4.376;2022-12-08T05:51:17;2.30;;;0.85;;
70052;SDS011;57398;52.032;4.376;2022-12-08T05:53:47;1.42;;;0.70;;
70052;SDS011;57398;52.032;4.376;2022-12-08T05:56:17;3.25;;;0.60;;
70052;SDS011;57398;52.032;4.376;2022-12-08T05:58:45;1.73;;;0.73;;
70052;SDS011;57398;52.032;4.376;2022-12-08T06:01:17;1.60;;;0.70;;
70052;SDS011;57398;52.032;4.376;2022-12-08T06:03:46;1.50;;;0.60;;
70052;SDS011;57398;52.032;4.376;2022-12-08T06:06:13;1.90;;;0.70;;
70052;SDS011;57398;52.032;4.376;2022-12-08T06:08:41;1.50;;;0.80;;
70052;SDS011;57398;52.032;4.376;2022-12-08T06:11:09;2.33;;;0.83;;
70052;SDS011;57398;52.032;4.376;2022-12-08T06:13:38;1.42;;;0.70;;
70052;SDS011;57398;52.032;4.376;2022-12-08T06:16:06;1.80;;;0.80;;
70052;SDS011;57398;52.032;4.376;2022-12-08T06:18:33;1.80;;;0.80;;
70052;SDS011;57398;52.032;4.376;2022-12-08T06:21:02;1.63;;;0.70;;
70052;SDS011;57398;52.032;4.376;2022-12-08T06:23:31;1.57;;;0.60;;
70052;SDS011;57398;52.032;4.376;2022-12-08T06:26:01;3.05;;;0.80;;
70052;SDS011;57398;52.032;4.376;2022-12-08T06:28:30;2.83;;;0.88;;
70052;SDS011;57398;52.032;4.376;2022-12-08T06:31:05;2.28;;;0.70;;
70052;SDS011;57398;52.032;4.376;2022-12-08T06:33:34;1.58;;;0.70;;
70052;SDS011;57398;52.032;4.376;2022-12-08T06:36:02;3.80;;;0.60;;
70052;SDS011;57398;52.032;4.376;2022-12-08T06:38:31;3.50;;;0.70;;
70052;SDS011;57398;52.032;4.376;2022-12-08T06:40:59;4.38;;;0.82;;
70052;SDS011;57398;52.032;4.376;2022-12-08T06:43:27;2.03;;;0.57;;
70052;SDS011;57398;52.032;4.376;2022-12-08T06:45:54;4.57;;;0.80;;
70052;SDS011;57398;52.032;4.376;2022-12-08T06:48:23;1.67;;;0.50;;
70052;SDS011;57398;52.032;4.376;2022-12-08T06:50:51;3.55;;;0.88;;
70052;SDS011;57398;52.032;4.376;2022-12-08T06:53:19;3.13;;;0.57;;
70052;SDS011;57398;52.032;4.376;2022-12-08T06:55:50;2.35;;;0.52;;
70052;SDS011;57398;52.032;4.376;2022-12-08T06:58:26;1.55;;;0.70;;
70052;SDS011;57398;52.032;4.376;2022-12-08T07:00:54;2.77;;;0.63;;
70052;SDS011;57398;52.032;4.376;2022-12-08T07:03:23;1.83;;;0.60;;
70052;SDS011;57398;52.032;4.376;2022-12-08T07:05:54;2.33;;;0.63;;
70052;SDS011;57398;52.032;4.376;2022-12-08T07:08:28;2.78;;;0.73;;
70052;SDS011;57398;52.032;4.376;2022-12-08T07:10:56;3.40;;;0.88;;
70052;SDS011;57398;52.032;4.376;2022-12-08T07:13:24;2.27;;;0.90;;
70052;SDS011;57398;52.032;4.376;2022-12-08T07:15:52;3.10;;;0.98;;
70052;SDS011;57398;52.032;4.376;2022-12-08T07:18:19;2.50;;;0.82;;
70052;SDS011;57398;52.032;4.376;2022-12-08T07:20:48;3.63;;;0.93;;
70052;SDS011;57398;52.032;4.376;2022-12-08T07:23:16;3.88;;;1.02;;
70052;SDS011;57398;52.032;4.376;2022-12-08T07:25:44;3.00;;;0.90;;
70052;SDS011;57398;52.032;4.376;2022-12-08T07:28:11;2.78;;;0.93;;
70052;SDS011;57398;52.032;4.376;2022-12-08T07:30:39;3.92;;;0.98;;
70052;SDS011;57398;52.032;4.376;2022-12-08T07:33:07;2.80;;;0.93;;
70052;SDS011;57398;52.032;4.376;2022-12-08T07:35:34;3.05;;;0.88;;
70052;SDS011;57398;52.032;4.376;2022-12-08T07:38:03;2.37;;;1.07;;
70052;SDS011;57398;52.032;4.376;2022-12-08T07:40:31;4.38;;;0.85;;
70052;SDS011;57398;52.032;4.376;2022-12-08T07:42:59;4.43;;;0.90;;
70052;SDS011;57398;52.032;4.376;2022-12-08T07:45:26;2.15;;;0.90;;
70052;SDS011;57398;52.032;4.376;2022-12-08T07:47:57;2.95;;;1.08;;
70052;SDS011;57398;52.032;4.376;2022-12-08T07:50:25;4.23;;;1.00;;
70052;SDS011;57398;52.032;4.376;2022-12-08T07:52:52;4.80;;;1.30;;
70052;SDS011;57398;52.032;4.376;2022-12-08T07:55:21;3.38;;;1.00;;
70052;SDS011;57398;52.032;4.376;2022-12-08T07:57:49;3.75;;;1.17;;
70052;SDS011;57398;52.032;4.376;2022-12-08T08:00:18;5.07;;;1.20;;
70052;SDS011;57398;52.032;4.376;2022-12-08T08:02:46;2.60;;;1.13;;
70052;SDS011;57398;52.032;4.376;2022-12-08T08:05:14;3.38;;;1.00;;
70052;SDS011;57398;52.032;4.376;2022-12-08T08:07:42;2.90;;;0.95;;
70052;SDS011;57398;52.032;4.376;2022-12-08T08:10:11;2.83;;;1.00;;
70052;SDS011;57398;52.032;4.376;2022-12-08T08:12:40;2.38;;;0.80;;
70052;SDS011;57398;52.032;4.376;2022-12-08T08:15:08;3.93;;;1.10;;
70052;SDS011;57398;52.032;4.376;2022-12-08T08:17:36;3.63;;;1.40;;
70052;SDS011;57398;52.032;4.376;2022-12-08T08:20:05;3.97;;;1.15;;
70052;SDS011;57398;52.032;4.376;2022-12-08T08:22:34;3.05;;;1.10;;
70052;SDS011;57398;52.032;4.376;2022-12-08T08:25:02;4.13;;;1.33;;
70052;SDS011;57398;52.032;4.376;2022-12-08T08:27:30;3.67;;;1.30;;
70052;SDS011;57398;52.032;4.376;2022-12-08T08:29:59;6.15;;;1.67;;
70052;SDS011;57398;52.032;4.376;2022-12-08T08:32:31;2.63;;;0.82;;
70052;SDS011;57398;52.032;4.376;2022-12-08T08:34:59;1.98;;;0.90;;
70052;SDS011;57398;52.032;4.376;2022-12-08T08:37:27;4.05;;;1.00;;
70052;SDS011;57398;52.032;4.376;2022-12-08T08:39:55;3.20;;;0.97;;
70052;SDS011;57398;52.032;4.376;2022-12-08T08:42:22;2.90;;;0.80;;
70052;SDS011;57398;52.032;4.376;2022-12-08T08:44:50;3.20;;;1.00;;
70052;SDS011;57398;52.032;4.376;2022-12-08T08:47:19;2.35;;;1.05;;
70052;SDS011;57398;52.032;4.376;2022-12-08T08:49:47;2.65;;;1.30;;
70052;SDS011;57398;52.032;4.376;2022-12-08T08:52:14;2.97;;;1.10;;
70052;SDS011;57398;52.032;4.376;2022-12-08T08:54:42;3.25;;;0.90;;
70052;SDS011;57398;52.032;4.376;2022-12-08T08:57:10;2.63;;;0.70;;
70052;SDS011;57398;52.032;4.376;2022-12-08T08:59:38;2.80;;;0.90;;
70052;SDS011;57398;52.032;4.376;2022-12-08T09:02:05;2.13;;;0.80;;
70052;SDS011;57398;52.032;4.376;2022-12-08T09:04:37;2.43;;;0.90;;
70052;SDS011;57398;52.032;4.376;2022-12-08T09:07:05;1.63;;;0.75;;
70052;SDS011;57398;52.032;4.376;2022-12-08T09:09:33;2.45;;;0.90;;
70052;SDS011;57398;52.032;4.376;2022-12-08T09:12:00;1.77;;;0.70;;
70052;SDS011;57398;52.032;4.376;2022-12-08T09:14:28;2.92;;;0.80;;
70052;SDS011;57398;52.032;4.376;2022-12-08T09:16:56;4.33;;;0.90;;
70052;SDS011;57398;52.032;4.376;2022-12-08T09:19:23;1.92;;;0.75;;
70052;SDS011;57398;52.032;4.376;2022-12-08T09:21:52;1.90;;;0.70;;
70052;SDS011;57398;52.032;4.376;2022-12-08T09:24:20;1.77;;;0.88;;
70052;SDS011;57398;52.032;4.376;2022-12-08T09:26:50;3.78;;;0.80;;
70052;SDS011;57398;52.032;4.376;2022-12-08T09:29:18;2.03;;;0.80;;
70052;SDS011;57398;52.032;4.376;2022-12-08T09:31:46;2.83;;;0.93;;
70052;SDS011;57398;52.032;4.376;2022-12-08T09:34:13;2.45;;;0.88;;
70052;SDS011;57398;52.032;4.376;2022-12-08T09:36:41;2.03;;;0.95;;
70052;SDS011;57398;52.032;4.376;2022-12-08T09:39:10;2.50;;;0.70;;
70052;SDS011;57398;52.032;4.376;2022-12-08T09:41:42;2.33;;;0.93;;
70052;SDS011;57398;52.032;4.376;2022-12-08T09:44:30;3.40;;;1.20;;
70052;SDS011;57398;52.032;4.376;2022-12-08T09:47:12;1.98;;;0.90;;
70052;SDS011;57398;52.032;4.376;2022-12-08T09:49:45;5.20;;;1.10;;
70052;SDS011;57398;52.032;4.376;2022-12-08T09:52:19;5.20;;;1.10;;
70052;SDS011;57398;52.032;4.376;2022-12-08T09:54:51;3.83;;;1.37;;
70052;SDS011;57398;52.032;4.376;2022-12-08T09:57:19;2.40;;;1.10;;
70052;SDS011;57398;52.032;4.376;2022-12-08T09:59:51;3.92;;;1.27;;
70052;SDS011;57398;52.032;4.376;2022-12-08T10:02:21;2.97;;;1.15;;
70052;SDS011;57398;52.032;4.376;2022-12-08T10:04:51;2.67;;;1.23;;
70052;SDS011;57398;52.032;4.376;2022-12-08T10:07:23;2.37;;;1.10;;
70052;SDS011;57398;52.032;4.376;2022-12-08T10:09:59;4.45;;;1.10;;
70052;SDS011;57398;52.032;4.376;2022-12-08T10:12:33;2.97;;;1.20;;
70052;SDS011;57398;52.032;4.376;2022-12-08T10:15:12;3.92;;;1.10;;
70052;SDS011;57398;52.032;4.376;2022-12-08T10:17:56;1.70;;;0.80;;
70052;SDS011;57398;52.032;4.376;2022-12-08T10:20:30;1.83;;;0.87;;
70052;SDS011;57398;52.032;4.376;2022-12-08T10:23:06;3.47;;;1.08;;
70052;SDS011;57398;52.032;4.376;2022-12-08T10:25:44;2.67;;;1.08;;
70052;SDS011;57398;52.032;4.376;2022-12-08T10:28:13;3.45;;;1.30;;
70052;SDS011;57398;52.032;4.376;2022-12-08T10:30:41;2.42;;;0.90;;
70052;SDS011;57398;52.032;4.376;2022-12-08T10:33:09;2.27;;;0.90;;
70052;SDS011;57398;52.032;4.376;2022-12-08T10:35:42;2.17;;;0.90;;
70052;SDS011;57398;52.032;4.376;2022-12-08T10:38:15;2.50;;;0.90;;
70052;SDS011;57398;52.032;4.376;2022-12-08T10:40:46;3.58;;;1.08;;
70052;SDS011;57398;52.032;4.376;2022-12-08T10:43:16;3.97;;;1.20;;
70052;SDS011;57398;52.032;4.376;2022-12-08T10:45:47;4.50;;;1.70;;
70052;SDS011;57398;52.032;4.376;2022-12-08T10:48:16;4.70;;;1.40;;
70052;SDS011;57398;52.032;4.376;2022-12-08T10:50:45;3.20;;;1.00;;
70052;SDS011;57398;52.032;4.376;2022-12-08T10:53:19;3.80;;;1.33;;
70052;SDS011;57398;52.032;4.376;2022-12-08T10:55:50;2.97;;;1.00;;
70052;SDS011;57398;52.032;4.376;2022-12-08T10:58:27;3.93;;;1.07;;
70052;SDS011;57398;52.032;4.376;2022-12-08T11:00:57;2.90;;;1.30;;
70052;SDS011;57398;52.032;4.376;2022-12-08T11:03:27;4.28;;;1.20;;
70052;SDS011;57398;52.032;4.376;2022-12-08T11:05:57;3.58;;;1.08;;
70052;SDS011;57398;52.032;4.376;2022-12-08T11:08:32;3.13;;;1.20;;
70052;SDS011;57398;52.032;4.376;2022-12-08T11:11:01;3.23;;;1.20;;
70052;SDS011;57398;52.032;4.376;2022-12-08T11:13:29;3.13;;;1.10;;
70052;SDS011;57398;52.032;4.376;2022-12-08T11:15:56;3.03;;;1.20;;
70052;SDS011;57398;52.032;4.376;2022-12-08T11:18:26;4.05;;;1.00;;
70052;SDS011;57398;52.032;4.376;2022-12-08T11:20:56;3.60;;;1.13;;
70052;SDS011;57398;52.032;4.376;2022-12-08T11:23:28;3.47;;;1.00;;
70052;SDS011;57398;52.032;4.376;2022-12-08T11:25:57;3.30;;;1.23;;
70052;SDS011;57398;52.032;4.376;2022-12-08T11:28:31;3.53;;;1.23;;
70052;SDS011;57398;52.032;4.376;2022-12-08T11:31:02;2.72;;;1.23;;
70052;SDS011;57398;52.032;4.376;2022-12-08T11:33:38;3.30;;;1.20;;
70052;SDS011;57398;52.032;4.376;2022-12-08T11:36:09;4.50;;;1.20;;
70052;SDS011;57398;52.032;4.376;2022-12-08T11:38:41;2.92;;;1.00;;
70052;SDS011;57398;52.032;4.376;2022-12-08T11:41:15;2.25;;;1.10;;
70052;SDS011;57398;52.032;4.376;2022-12-08T11:43:49;2.70;;;1.00;;
70052;SDS011;57398;52.032;4.376;2022-12-08T11:46:22;4.82;;;1.30;;
70052;SDS011;57398;52.032;4.376;2022-12-08T11:48:52;3.93;;;0.90;;
70052;SDS011;57398;52.032;4.376;2022-12-08T11:51:32;3.85;;;1.00;;
70052;SDS011;57398;52.032;4.376;2022-12-08T11:54:12;2.40;;;0.90;;
70052;SDS011;57398;52.032;4.376;2022-12-08T11:56:47;2.53;;;0.68;;
70052;SDS011;57398;52.032;4.376;2022-12-08T11:59:18;2.15;;;0.90;;
70052;SDS011;57398;52.032;4.376;2022-12-08T12:01:52;2.20;;;1.00;;
70052;SDS011;57398;52.032;4.376;2022-12-08T12:04:21;3.65;;;1.05;;
70052;SDS011;57398;52.032;4.376;2022-12-08T12:07:02;2.63;;;1.05;;
70052;SDS011;57398;52.032;4.376;2022-12-08T12:09:52;2.70;;;0.90;;
70052;SDS011;57398;52.032;4.376;2022-12-08T12:12:37;3.33;;;1.48;;
70052;SDS011;57398;52.032;4.376;2022-12-08T12:15:20;3.70;;;1.33;;
70052;SDS011;57398;52.032;4.376;2022-12-08T12:18:07;2.88;;;1.15;;
70052;SDS011;57398;52.032;4.376;2022-12-08T12:20:45;5.53;;;1.25;;
70052;SDS011;57398;52.032;4.376;2022-12-08T12:23:20;5.43;;;1.63;;
70052;SDS011;57398;52.032;4.376;2022-12-08T12:25:53;3.42;;;1.48;;
70052;SDS011;57398;52.032;4.376;2022-12-08T12:28:24;3.93;;;1.57;;
70052;SDS011;57398;52.032;4.376;2022-12-08T12:30:56;4.18;;;1.70;;
70052;SDS011;57398;52.032;4.376;2022-12-08T12:33:29;5.85;;;2.00;;
70052;SDS011;57398;52.032;4.376;2022-12-08T12:35:57;4.35;;;1.85;;
70052;SDS011;57398;52.032;4.376;2022-12-08T12:38:31;4.60;;;1.88;;
70052;SDS011;57398;52.032;4.376;2022-12-08T12:41:22;6.53;;;2.40;;
70052;SDS011;57398;52.032;4.376;2022-12-08T12:44:07;4.75;;;2.22;;
70052;SDS011;57398;52.032;4.376;2022-12-08T12:46:54;5.43;;;2.40;;
70052;SDS011;57398;52.032;4.376;2022-12-08T12:55:17;5.60;;;2.43;;
70052;SDS011;57398;52.032;4.376;2022-12-08T12:58:21;6.63;;;2.45;;
70052;SDS011;57398;52.032;4.376;2022-12-08T13:00:50;4.90;;;2.38;;
70052;SDS011;57398;52.032;4.376;2022-12-08T13:04:01;5.88;;;2.83;;
70052;SDS011;57398;52.032;4.376;2022-12-08T13:06:34;5.47;;;2.80;;
70052;SDS011;57398;52.032;4.376;2022-12-08T13:09:05;8.10;;;3.00;;
70052;SDS011;57398;52.032;4.376;2022-12-08T13:11:44;4.80;;;2.38;;
70052;SDS011;57398;52.032;4.376;2022-12-08T13:14:24;6.05;;;2.60;;
70052;SDS011;57398;52.032;4.376;2022-12-08T13:16:59;5.53;;;2.58;;
70052;SDS011;57398;52.032;4.376;2022-12-08T13:19:29;9.82;;;2.78;;
70052;SDS011;57398;52.032;4.376;2022-12-08T13:21:58;5.17;;;2.40;;
70052;SDS011;57398;52.032;4.376;2022-12-08T13:24:28;5.38;;;1.92;;
70052;SDS011;57398;52.032;4.376;2022-12-08T13:33:08;5.25;;;2.00;;
70052;SDS011;57398;52.032;4.376;2022-12-08T13:35:45;3.93;;;1.50;;
70052;SDS011;57398;52.032;4.376;2022-12-08T13:38:19;4.20;;;1.55;;
70052;SDS011;57398;52.032;4.376;2022-12-08T13:40:48;4.78;;;1.70;;
70052;SDS011;57398;52.032;4.376;2022-12-08T13:43:20;3.65;;;1.52;;
70052;SDS011;57398;52.032;4.376;2022-12-08T13:46:02;4.65;;;1.55;;
70052;SDS011;57398;52.032;4.376;2022-12-08T13:48:54;3.27;;;1.23;;
70052;SDS011;57398;52.032;4.376;2022-12-08T13:51:44;4.25;;;1.50;;
70052;SDS011;57398;52.032;4.376;2022-12-08T13:54:35;3.92;;;1.48;;
70052;SDS011;57398;52.032;4.376;2022-12-08T13:57:27;6.20;;;1.75;;
70052;SDS011;57398;52.032;4.376;2022-12-08T14:00:00;3.80;;;1.48;;
70052;SDS011;57398;52.032;4.376;2022-12-08T14:02:33;4.63;;;1.70;;
70052;SDS011;57398;52.032;4.376;2022-12-08T14:05:10;6.75;;;1.60;;
70052;SDS011;57398;52.032;4.376;2022-12-08T14:07:44;3.83;;;1.50;;
70052;SDS011;57398;52.032;4.376;2022-12-08T14:10:15;4.25;;;1.58;;
70052;SDS011;57398;52.032;4.376;2022-12-08T14:12:47;3.83;;;1.50;;
70052;SDS011;57398;52.032;4.376;2022-12-08T14:15:21;4.17;;;1.30;;
70052;SDS011;57398;52.032;4.376;2022-12-08T14:17:51;2.80;;;1.20;;
70052;SDS011;57398;52.032;4.376;2022-12-08T14:20:23;5.95;;;1.95;;
70052;SDS011;57398;52.032;4.376;2022-12-08T14:22:53;4.97;;;1.55;;
70052;SDS011;57398;52.032;4.376;2022-12-08T14:25:21;3.92;;;1.80;;
70052;SDS011;57398;52.032;4.376;2022-12-08T14:27:50;3.07;;;1.30;;
70052;SDS011;57398;52.032;4.376;2022-12-08T14:30:25;3.40;;;1.35;;
70052;SDS011;57398;52.032;4.376;2022-12-08T14:32:57;3.70;;;1.60;;
70052;SDS011;57398;52.032;4.376;2022-12-08T14:35:28;3.55;;;1.35;;
70052;SDS011;57398;52.032;4.376;2022-12-08T14:37:57;3.67;;;1.38;;
70052;SDS011;57398;52.032;4.376;2022-12-08T14:40:27;4.43;;;1.33;;
70052;SDS011;57398;52.032;4.376;2022-12-08T14:43:09;3.30;;;1.42;;
70052;SDS011;57398;52.032;4.376;2022-12-08T14:45:45;4.25;;;1.40;;
70052;SDS011;57398;52.032;4.376;2022-12-08T14:48:17;4.43;;;1.50;;
70052;SDS011;57398;52.032;4.376;2022-12-08T14:50:54;4.30;;;1.77;;
70052;SDS011;57398;52.032;4.376;2022-12-08T14:53:28;5.97;;;1.60;;
70052;SDS011;57398;52.032;4.376;2022-12-08T14:56:05;4.78;;;1.75;;
70052;SDS011;57398;52.032;4.376;2022-12-08T14:58:34;3.92;;;1.50;;
70052;SDS011;57398;52.032;4.376;2022-12-08T15:01:02;5.07;;;1.90;;
70052;SDS011;57398;52.032;4.376;2022-12-08T15:03:35;3.70;;;1.90;;
70052;SDS011;57398;52.032;4.376;2022-12-08T15:06:05;4.63;;;1.90;;
70052;SDS011;57398;52.032;4.376;2022-12-08T15:08:49;4.28;;;1.80;;
70052;SDS011;57398;52.032;4.376;2022-12-08T15:11:32;4.20;;;1.83;;
70052;SDS011;57398;52.032;4.376;2022-12-08T15:14:01;4.13;;;1.80;;
70052;SDS011;57398;52.032;4.376;2022-12-08T15:16:36;5.45;;;1.90;;
70052;SDS011;57398;52.032;4.376;2022-12-08T15:19:16;6.73;;;1.80;;
70052;SDS011;57398;52.032;4.376;2022-12-08T15:21:49;4.03;;;1.92;;
70052;SDS011;57398;52.032;4.376;2022-12-08T15:24:17;5.43;;;2.50;;
70052;SDS011;57398;52.032;4.376;2022-12-08T15:26:47;4.57;;;2.10;;
70052;SDS011;57398;52.032;4.376;2022-12-08T15:29:20;4.88;;;2.15;;
70052;SDS011;57398;52.032;4.376;2022-12-08T15:31:50;5.10;;;2.00;;